Terminal Aerodrome Forecast
Issued by NWS

Home | Current Version | Previous Version | Text Only | Print | Product List | Glossary On
Versions: 1 2 3 4 5 6 7 8 9 10 11 12 13 14 15 16
000
FTUS45 KABQ 301800 AAA
TAFFMN
TAF AMD
KFMN 301829Z 3018/3118 09009KT 2SM -SN BR SCT007 OVC010
      TEMPO 3018/3021 3/4SM -SN BR OVC003
     FM302100 09013G20KT P6SM -RASN SCT007 OVC015
     FM310200 10011KT 4SM -RASN SCT005 OVC010
     FM310700 09006KT 2SM -SN BR OVC007=

USA.gov is the U.S. government's official web portal to all federal, state and local government web resources and services.